Aeroporto :







RITROVATECI SU...

 
LOGIN :

Iscrizione | Disclaimer

   EN    FR    IT 

 









Sommario :    VFR   VFR Marginale   IFR   IFR Intensivo   IFR Molto Intensivo
Visibilità : 
Base nubi : 
>= 8 km
>= 3000ft
5 / 8 km
1000 / 3000 ft
1500m / 5 km
500 / 1000 ft
800 / 1500m
200 / 500 ft
< 800m
< 200 ft
Simboli :   Temporali  Nebbia  Neve Forte  Precipitazioni Forti  Vento > 20 kt






- Altitudine del aeroporto : 92 ft
- Codice IATA : YZX


CYZX - CFB Greenwood

ULTIMO METAR :
  • 272200Z 21003KT 15SM SCT023 BKN040 OVC075 02/02 A2944 RMK SC4SC2AC2 SLP970

METARs OBSOLETI :
  • 272135Z 22004KT 15SM BKN023 OVC040 02/02 A2944 RMK SC6SC2 SLP971
  • 272119Z 20006KT 15SM SCT023 OVC043 03/02 A2944 RMK SC3SC5 SLP969
  • 272100Z 20007KT 15SM -SHRA BKN023 OVC028 03/02 A2944 RMK SC6SC2 SLP969
  • 272000Z 23009G16KT 15SM -SHRA OVC023 04/02 A2942 RMK SC8 PCPN VRY LGT SLP964

TAF AMD TAF CYZX
Valido dal 27 a 19 ore il 28 a 18 ore UTC


271936Z 2719/2818 25012KT P6SM BKN030
TEMPO 2719/2801 P6SM -SHRA BKN020 OVC030
FM280100 33005KT 6SM -SHSN BKN015 OVC025
TEMPO 2801/2810 5SM -SHSN
FM281000 01008KT P6SM -SHSN BKN020 RMK NXT FCST BY 280000Z



MetMap, La meteo Aeronautica in un colpo d'occhio ! - Copyright ORBIFLY Dicembre 2007 - Disclaimer

ORBIFLY MET'MAP TEAM :

Programmazione e sviluppo : Alexandra Zaïnal
Concezione : Baudouin d'Aumeries
Aiuto per la programmazione : Marc-Olivier Méhu
Supporto tecnico e logistico : Manuel Goepfert
Aiuto per la traduzione : Arnaldo La Scala

Contatto : metmap@orbifly.com




FONTI E CREDITI :

   NOAA